createdAt,value
2018-09-19T00:00:04.704Z,20.06
2018-09-19T00:02:35.377Z,20.06
2018-09-19T00:05:06.041Z,20.06
2018-09-19T00:07:36.723Z,20.04
2018-09-19T00:10:07.522Z,20.04
2018-09-19T00:12:38.210Z,20.01
2018-09-19T00:15:08.848Z,20.00
2018-09-19T00:17:39.550Z,20.00
2018-09-19T00:20:41.170Z,19.99
2018-09-19T00:23:11.824Z,19.98
2018-09-19T00:25:42.670Z,19.94
2018-09-19T00:28:13.339Z,20.02
2018-09-19T00:30:43.996Z,19.97
2018-09-19T00:33:14.685Z,19.90
2018-09-19T00:35:45.323Z,19.89
2018-09-19T00:38:16.013Z,19.87
2018-09-19T00:40:46.723Z,19.85
2018-09-19T00:43:17.366Z,19.83
2018-09-19T00:45:48.183Z,19.83
2018-09-19T00:48:18.890Z,19.80
2018-09-19T00:50:49.540Z,19.78
2018-09-19T00:53:20.223Z,19.74
2018-09-19T00:55:50.888Z,19.71
2018-09-19T00:58:21.502Z,19.75
2018-09-19T01:00:52.127Z,19.70
2018-09-19T01:03:22.856Z,19.63
2018-09-19T01:05:53.596Z,19.60
2018-09-19T01:08:24.391Z,19.49
2018-09-19T01:10:55.072Z,19.49
2018-09-19T01:13:25.857Z,19.47
2018-09-19T01:15:56.644Z,19.43
2018-09-19T01:18:27.390Z,19.39
2018-09-19T01:20:58.021Z,19.35
2018-09-19T01:23:28.822Z,19.28
2018-09-19T01:25:59.465Z,19.28
2018-09-19T01:28:30.206Z,19.26
2018-09-19T01:31:00.843Z,19.20
2018-09-19T01:33:31.613Z,19.16
2018-09-19T01:36:02.357Z,19.18
2018-09-19T01:38:33.094Z,19.06
2018-09-19T01:41:03.726Z,19.07
2018-09-19T01:43:49.247Z,18.99
2018-09-19T01:46:19.904Z,18.94
2018-09-19T01:48:50.606Z,18.89
2018-09-19T01:51:21.298Z,18.85
2018-09-19T01:53:52.180Z,18.78
2018-09-19T01:56:22.833Z,18.72
2018-09-19T01:58:53.527Z,18.69
2018-09-19T02:01:24.192Z,18.65
2018-09-19T02:03:54.848Z,18.61
2018-09-19T02:06:25.520Z,18.57
2018-09-19T02:08:56.228Z,18.56
2018-09-19T02:11:26.940Z,18.50
2018-09-19T02:13:57.609Z,18.48
2018-09-19T02:16:28.298Z,18.44
2018-09-19T02:18:58.962Z,18.34
2018-09-19T02:21:29.732Z,18.35
2018-09-19T02:24:00.646Z,18.30
2018-09-19T02:26:31.365Z,18.28
2018-09-19T02:29:02.109Z,18.30
2018-09-19T02:31:32.822Z,18.24
2018-09-19T02:34:03.572Z,18.20
2018-09-19T02:36:34.243Z,18.11
2018-09-19T02:39:08.108Z,18.08
2018-09-19T02:41:39.007Z,18.01
2018-09-19T02:44:09.723Z,17.94
2018-09-19T02:46:40.353Z,17.92
2018-09-19T02:49:11.023Z,17.89
2018-09-19T02:51:42.033Z,17.83
2018-09-19T02:54:12.678Z,17.82
2018-09-19T02:56:43.347Z,17.81
2018-09-19T02:59:14.079Z,17.78
2018-09-19T03:01:44.872Z,17.75
2018-09-19T03:04:15.515Z,17.68
2018-09-19T03:06:46.323Z,17.64
2018-09-19T03:09:17.020Z,17.60
2018-09-19T03:11:47.705Z,17.58
2018-09-19T03:14:18.399Z,17.55
2018-09-19T03:16:49.096Z,17.55
2018-09-19T03:19:19.821Z,17.50
2018-09-19T03:21:50.469Z,17.45
2018-09-19T03:24:21.241Z,17.42
2018-09-19T03:26:51.934Z,17.40
2018-09-19T03:29:22.647Z,17.36
2018-09-19T03:31:53.300Z,17.32
2018-09-19T03:34:24.203Z,17.28
2018-09-19T03:36:54.960Z,17.26
2018-09-19T03:39:25.810Z,17.22
2018-09-19T03:41:56.418Z,17.20
2018-09-19T03:44:27.129Z,17.09
2018-09-19T03:46:59.041Z,17.09
2018-09-19T03:49:30.151Z,17.04
2018-09-19T03:52:00.858Z,17.00
2018-09-19T03:54:31.604Z,16.98
2018-09-19T03:57:02.287Z,17.02
2018-09-19T03:59:33.043Z,16.97
2018-09-19T04:02:03.701Z,16.94
2018-09-19T04:04:34.436Z,16.90
2018-09-19T04:07:05.127Z,16.89
2018-09-19T04:09:35.825Z,16.86
2018-09-19T04:12:06.572Z,16.87
2018-09-19T04:14:37.329Z,16.88
2018-09-19T04:17:07.992Z,16.85
2018-09-19T04:19:38.681Z,16.81
2018-09-19T04:22:09.372Z,16.76
2018-09-19T04:24:40.031Z,16.78
2018-09-19T04:27:10.645Z,16.74
2018-09-19T04:29:41.372Z,16.75
2018-09-19T04:32:12.143Z,16.74
2018-09-19T04:34:42.761Z,16.72
2018-09-19T04:37:14.146Z,16.70
2018-09-19T04:39:44.825Z,16.67
2018-09-19T04:42:15.508Z,16.65
2018-09-19T04:44:46.171Z,16.61
2018-09-19T04:47:16.822Z,16.59
2018-09-19T04:49:47.453Z,16.59
2018-09-19T04:52:18.143Z,16.57
2018-09-19T04:54:48.793Z,16.52
2018-09-19T04:57:19.549Z,16.47
2018-09-19T04:59:50.308Z,16.45
2018-09-19T05:02:21.025Z,16.45
2018-09-19T05:04:52.042Z,16.51
2018-09-19T05:07:22.775Z,16.67
2018-09-19T05:09:53.396Z,16.61
2018-09-19T05:12:24.084Z,16.57
2018-09-19T05:14:54.767Z,16.58
2018-09-19T05:17:25.414Z,16.56
2018-09-19T05:19:56.095Z,16.51
2018-09-19T05:25:27.832Z,16.49
2018-09-19T05:27:58.552Z,16.58
2018-09-19T05:30:29.250Z,16.68
2018-09-19T05:33:06.619Z,16.74
2018-09-19T05:35:37.343Z,16.76
2018-09-19T05:38:08.259Z,16.79
2018-09-19T05:40:38.966Z,16.76
2018-09-19T05:43:09.733Z,16.79
2018-09-19T05:45:40.479Z,16.87
2018-09-19T05:48:11.195Z,16.84
2018-09-19T05:50:41.862Z,16.85
2018-09-19T05:53:12.588Z,16.94
2018-09-19T05:55:43.271Z,17.06
2018-09-19T05:58:13.967Z,17.18
2018-09-19T06:00:44.670Z,17.29
2018-09-19T06:03:15.411Z,17.45
2018-09-19T06:05:46.169Z,17.52
2018-09-19T06:08:16.848Z,17.64
2018-09-19T06:10:47.497Z,17.68
2018-09-19T06:13:18.503Z,17.73
2018-09-19T06:15:49.169Z,17.73
2018-09-19T06:18:20.059Z,17.79
2018-09-19T06:20:50.756Z,17.86
2018-09-19T06:23:21.519Z,17.92
2018-09-19T06:25:52.229Z,18.07
2018-09-19T06:28:22.958Z,18.14
2018-09-19T06:30:53.983Z,18.22
2018-09-19T06:33:24.724Z,18.28
2018-09-19T06:36:02.099Z,18.34
2018-09-19T06:38:32.742Z,18.48
2018-09-19T06:41:03.509Z,18.64
2018-09-19T06:43:34.136Z,18.82
2018-09-19T06:46:04.861Z,18.99
2018-09-19T06:48:35.521Z,19.19
2018-09-19T06:51:06.269Z,19.32
2018-09-19T06:53:36.914Z,19.55
2018-09-19T06:56:07.658Z,19.86
2018-09-19T06:58:38.355Z,19.97
2018-09-19T07:01:09.033Z,20.24
2018-09-19T07:03:39.756Z,20.44
2018-09-19T07:06:10.429Z,20.60
2018-09-19T07:08:41.119Z,20.80
2018-09-19T07:11:11.781Z,20.92
2018-09-19T07:13:42.500Z,20.97
2018-09-19T07:16:13.177Z,21.30
2018-09-19T07:18:43.875Z,21.51
2018-09-19T07:21:45.566Z,21.70
2018-09-19T07:24:16.463Z,22.07
2018-09-19T07:26:47.140Z,22.35
2018-09-19T07:29:17.888Z,22.51
2018-09-19T07:31:48.863Z,22.76
2018-09-19T07:34:19.605Z,22.89
2018-09-19T07:36:50.405Z,23.25
2018-09-19T07:39:21.170Z,23.41
2018-09-19T07:41:51.820Z,23.49
2018-09-19T07:44:22.525Z,23.84
2018-09-19T07:46:53.317Z,24.25
2018-09-19T07:49:24.030Z,24.55
2018-09-19T07:51:54.997Z,24.60
2018-09-19T07:54:25.720Z,24.72
2018-09-19T07:56:56.757Z,24.80
2018-09-19T07:59:27.575Z,24.81
2018-09-19T08:01:58.282Z,24.89
2018-09-19T08:04:28.967Z,24.83
2018-09-19T08:06:59.626Z,24.67
2018-09-19T08:09:30.283Z,25.24
2018-09-19T08:12:01.037Z,25.46
2018-09-19T08:14:31.752Z,25.29
2018-09-19T08:17:02.465Z,25.72
2018-09-19T08:19:33.207Z,25.79
2018-09-19T08:22:03.916Z,25.80
2018-09-19T08:24:34.561Z,25.88
2018-09-19T08:27:05.349Z,25.86
2018-09-19T08:29:35.990Z,25.32
2018-09-19T08:32:06.759Z,25.52
2018-09-19T08:34:37.619Z,25.74
2018-09-19T08:37:08.263Z,26.02
2018-09-19T08:39:39.015Z,26.03
2018-09-19T08:42:09.704Z,25.89
2018-09-19T08:44:40.384Z,26.54
2018-09-19T08:47:11.014Z,27.00
2018-09-19T08:50:13.121Z,27.12
2018-09-19T08:52:44.010Z,27.49
2018-09-19T08:55:14.728Z,27.85
2018-09-19T08:57:45.400Z,27.56
2018-09-19T09:00:16.104Z,26.86
2018-09-19T09:02:46.881Z,27.29
2018-09-19T09:05:17.669Z,27.23
2018-09-19T09:07:48.300Z,27.30
2018-09-19T09:10:19.066Z,26.68
2018-09-19T09:12:49.845Z,26.72
2018-09-19T09:15:20.499Z,27.21
2018-09-19T09:17:51.204Z,27.44
2018-09-19T09:20:21.969Z,27.02
2018-09-19T09:22:52.683Z,27.07
2018-09-19T09:25:23.350Z,27.40
2018-09-19T09:27:54.031Z,27.29
2018-09-19T09:30:24.696Z,27.87
2018-09-19T09:32:55.390Z,28.13
2018-09-19T09:35:26.140Z,27.79
2018-09-19T09:37:56.818Z,28.02
2018-09-19T09:40:27.614Z,27.74
2018-09-19T09:42:58.242Z,28.14
2018-09-19T09:45:28.907Z,28.41
2018-09-19T09:47:59.544Z,28.10
2018-09-19T09:50:30.314Z,27.69
2018-09-19T09:53:00.912Z,27.87
2018-09-19T09:55:31.701Z,28.40
2018-09-19T09:58:02.414Z,28.74
2018-09-19T10:00:38.388Z,28.01
2018-09-19T10:03:09.794Z,28.00
2018-09-19T10:05:40.807Z,27.74
2018-09-19T10:08:11.499Z,27.82
2018-09-19T10:10:42.113Z,28.45
2018-09-19T10:13:12.808Z,28.49
2018-09-19T10:15:43.624Z,28.60
2018-09-19T10:18:14.324Z,28.16
2018-09-19T10:20:45.028Z,27.56
2018-09-19T10:23:15.732Z,27.64
2018-09-19T10:25:46.442Z,27.66
2018-09-19T10:28:17.058Z,27.67
2018-09-19T10:30:47.756Z,28.16
2018-09-19T10:33:18.433Z,28.42
2018-09-19T10:35:49.205Z,28.07
2018-09-19T10:38:19.956Z,28.10
2018-09-19T10:40:50.689Z,28.50
2018-09-19T10:43:21.409Z,28.39
2018-09-19T10:45:52.082Z,28.18
2018-09-19T10:48:22.811Z,28.07
2018-09-19T10:50:53.583Z,28.19
2018-09-19T10:53:24.253Z,27.77
2018-09-19T10:55:55.200Z,27.96
2018-09-19T10:58:25.858Z,28.05
2018-09-19T11:00:56.501Z,28.01
2018-09-19T11:03:28.275Z,28.02
2018-09-19T11:06:30.071Z,28.41
2018-09-19T11:09:00.704Z,28.17
2018-09-19T11:11:31.383Z,27.66
2018-09-19T11:14:02.139Z,27.35
2018-09-19T11:16:32.780Z,27.03
2018-09-19T11:19:03.446Z,26.93
2018-09-19T11:21:34.047Z,26.89
2018-09-19T11:24:04.786Z,26.83
2018-09-19T11:26:35.454Z,27.13
2018-09-19T11:29:06.113Z,27.39
2018-09-19T11:31:36.815Z,28.02
2018-09-19T11:34:07.584Z,28.15
2018-09-19T11:36:38.270Z,28.06
2018-09-19T11:39:12.141Z,27.63
2018-09-19T11:41:42.953Z,27.45
2018-09-19T11:44:14.077Z,27.57
2018-09-19T11:46:44.719Z,27.72
2018-09-19T11:49:15.440Z,27.82
2018-09-19T11:51:46.033Z,28.18
2018-09-19T11:54:16.661Z,28.42
2018-09-19T11:56:47.281Z,28.61
2018-09-19T11:59:18.020Z,28.94
2018-09-19T12:01:48.670Z,29.06
2018-09-19T12:04:19.467Z,28.95
2018-09-19T12:06:50.478Z,29.02
2018-09-19T12:09:21.183Z,29.66
2018-09-19T12:11:52.018Z,30.28
2018-09-19T12:14:22.699Z,30.09
2018-09-19T12:16:53.344Z,29.62
2018-09-19T12:19:24.014Z,29.63
2018-09-19T12:21:54.710Z,29.60
2018-09-19T12:24:25.392Z,30.27
2018-09-19T12:26:56.161Z,30.44
2018-09-19T12:29:27.007Z,30.67
2018-09-19T12:31:57.779Z,30.92
2018-09-19T12:34:28.491Z,31.12
2018-09-19T12:36:59.217Z,31.16
2018-09-19T12:39:29.963Z,31.06
2018-09-19T12:42:07.317Z,30.94
2018-09-19T12:44:37.989Z,31.04
2018-09-19T12:47:08.733Z,30.29
2018-09-19T12:49:39.382Z,30.20
2018-09-19T12:52:10.017Z,30.11
2018-09-19T12:54:40.757Z,29.81
2018-09-19T12:57:11.455Z,29.86
2018-09-19T12:59:42.188Z,29.93
2018-09-19T13:02:12.907Z,29.91
2018-09-19T13:04:43.631Z,30.04
2018-09-19T13:07:14.356Z,29.70
2018-09-19T13:09:45.076Z,29.87
2018-09-19T13:12:15.717Z,29.81
2018-09-19T13:14:46.416Z,29.68
2018-09-19T13:17:17.103Z,29.35
2018-09-19T13:19:47.829Z,29.62
2018-09-19T13:22:19.160Z,29.68
2018-09-19T13:24:49.839Z,29.72
2018-09-19T13:27:20.494Z,29.61
2018-09-19T13:29:51.287Z,29.53
2018-09-19T13:32:21.979Z,29.59
2018-09-19T13:34:52.652Z,29.37
2018-09-19T13:37:23.377Z,29.26
2018-09-19T13:39:54.148Z,29.34
2018-09-19T13:42:24.839Z,29.46
2018-09-19T13:44:55.512Z,29.78
2018-09-19T13:47:26.213Z,29.61
2018-09-19T13:51:05.225Z,29.37
2018-09-19T13:53:35.938Z,29.08
2018-09-19T13:56:06.701Z,29.02
2018-09-19T13:58:37.449Z,29.06
2018-09-19T14:01:08.176Z,29.24
2018-09-19T14:03:38.857Z,29.16
2018-09-19T14:06:09.566Z,29.26
2018-09-19T14:08:40.362Z,29.48
2018-09-19T14:11:11.057Z,29.48
2018-09-19T14:13:41.746Z,29.29
2018-09-19T14:16:12.444Z,29.62
2018-09-19T14:18:43.169Z,29.75
2018-09-19T14:21:13.933Z,29.92
2018-09-19T14:23:44.728Z,30.19
2018-09-19T14:26:15.488Z,30.23
2018-09-19T14:28:46.185Z,29.92
2018-09-19T14:31:16.924Z,29.91
2018-09-19T14:33:47.836Z,29.85
2018-09-19T14:36:19.347Z,29.86
2018-09-19T14:38:50.044Z,29.86
2018-09-19T14:41:20.722Z,29.83
2018-09-19T14:43:51.362Z,29.89
2018-09-19T14:46:22.079Z,29.86
2018-09-19T14:48:52.803Z,29.60
2018-09-19T14:51:23.475Z,29.55
2018-09-19T14:53:54.235Z,29.93
2018-09-19T14:56:24.896Z,30.13
2018-09-19T14:58:55.600Z,30.16
2018-09-19T15:01:26.312Z,29.95
2018-09-19T15:03:56.951Z,29.60
2018-09-19T15:06:27.628Z,29.54
2018-09-19T15:08:58.325Z,29.36
2018-09-19T15:11:29.046Z,29.24
2018-09-19T15:13:59.721Z,29.27
2018-09-19T15:16:30.363Z,29.32
2018-09-19T15:19:00.999Z,29.43
2018-09-19T15:21:31.695Z,29.29
2018-09-19T15:24:02.371Z,29.36
2018-09-19T15:26:33.116Z,29.48
2018-09-19T15:29:03.841Z,29.55
2018-09-19T15:31:34.484Z,29.70
2018-09-19T15:34:05.251Z,29.74
2018-09-19T15:36:35.947Z,29.76
2018-09-19T15:39:09.469Z,29.70
2018-09-19T15:41:40.243Z,29.77
2018-09-19T15:44:10.957Z,29.84
2018-09-19T15:46:41.609Z,29.62
2018-09-19T15:49:12.393Z,29.55
2018-09-19T15:51:43.032Z,29.49
2018-09-19T15:54:13.730Z,29.51
2018-09-19T15:56:44.476Z,29.36
2018-09-19T15:59:15.221Z,29.31
2018-09-19T16:01:45.923Z,29.03
2018-09-19T16:04:16.627Z,29.01
2018-09-19T16:06:47.303Z,28.90
2018-09-19T16:09:18.073Z,28.87
2018-09-19T16:11:48.821Z,29.00
2018-09-19T16:14:19.556Z,29.01
2018-09-19T16:16:50.311Z,28.95
2018-09-19T16:19:20.994Z,28.71
2018-09-19T16:21:51.710Z,28.83
2018-09-19T16:24:22.385Z,28.92
2018-09-19T16:26:53.093Z,28.66
2018-09-19T16:29:23.773Z,28.60
2018-09-19T16:31:54.446Z,28.64
2018-09-19T16:34:25.127Z,28.56
2018-09-19T16:36:55.784Z,28.38
2018-09-19T16:39:26.435Z,28.25
2018-09-19T16:41:57.135Z,28.08
2018-09-19T16:44:27.878Z,27.92
2018-09-19T16:46:58.628Z,27.79
2018-09-19T16:49:29.275Z,27.62
2018-09-19T16:52:00.047Z,27.45
2018-09-19T16:54:30.687Z,27.39
2018-09-19T16:57:01.423Z,27.21
2018-09-19T16:59:32.088Z,27.08
2018-09-19T17:02:02.736Z,27.01
2018-09-19T17:04:33.366Z,26.97
2018-09-19T17:07:04.081Z,26.76
2018-09-19T17:09:34.750Z,26.70
2018-09-19T17:12:05.439Z,26.57
2018-09-19T17:14:36.052Z,26.57
2018-09-19T17:17:06.858Z,26.42
2018-09-19T17:19:37.513Z,26.41
2018-09-19T17:22:08.206Z,26.36
2018-09-19T17:24:38.868Z,26.27
2018-09-19T17:27:09.647Z,26.12
2018-09-19T17:29:40.273Z,26.03
2018-09-19T17:32:11.491Z,26.03
2018-09-19T17:34:42.212Z,25.91
2018-09-19T17:37:13.052Z,25.85
2018-09-19T17:39:43.746Z,25.77
2018-09-19T17:42:14.423Z,25.73
2018-09-19T17:44:45.143Z,25.65
2018-09-19T17:47:15.870Z,25.63
2018-09-19T17:49:46.635Z,25.53
2018-09-19T17:52:17.695Z,25.47
2018-09-19T17:54:48.433Z,25.40
2018-09-19T17:57:19.206Z,25.36
2018-09-19T17:59:49.951Z,25.26
2018-09-19T18:02:20.801Z,25.21
2018-09-19T18:04:51.487Z,25.17
2018-09-19T18:07:22.219Z,25.07
2018-09-19T18:09:52.887Z,25.03
2018-09-19T18:12:23.681Z,24.99
2018-09-19T18:14:54.444Z,24.91
2018-09-19T18:17:25.009Z,24.83
2018-09-19T18:19:55.875Z,24.76
2018-09-19T18:22:26.504Z,24.72
2018-09-19T18:24:57.190Z,24.60
2018-09-19T18:27:28.647Z,24.50
2018-09-19T18:29:59.385Z,24.43
2018-09-19T18:32:30.247Z,24.38
2018-09-19T18:35:00.976Z,24.29
2018-09-19T18:37:31.602Z,24.26
2018-09-19T18:40:02.422Z,24.13
2018-09-19T18:42:33.183Z,24.09
2018-09-19T18:45:03.964Z,24.06
2018-09-19T18:47:34.737Z,24.03
2018-09-19T18:50:05.631Z,23.96
2018-09-19T18:52:36.451Z,23.88
2018-09-19T18:55:07.305Z,23.82
2018-09-19T18:57:38.018Z,23.79
2018-09-19T19:00:08.873Z,23.73
2018-09-19T19:02:39.512Z,23.70
2018-09-19T19:05:10.457Z,23.64
2018-09-19T19:07:41.291Z,23.58
2018-09-19T19:10:12.032Z,23.54
2018-09-19T19:12:42.943Z,23.51
2018-09-19T19:15:14.328Z,23.47
2018-09-19T19:17:45.128Z,23.45
2018-09-19T19:20:16.066Z,23.34
2018-09-19T19:22:46.724Z,23.32
2018-09-19T19:25:17.413Z,23.25
2018-09-19T19:27:48.187Z,23.23
2018-09-19T19:30:21.972Z,23.18
2018-09-19T19:32:52.553Z,23.14
2018-09-19T19:35:23.405Z,23.09
2018-09-19T19:37:54.152Z,23.01
2018-09-19T19:40:24.825Z,23.00
2018-09-19T19:42:55.503Z,22.94
2018-09-19T19:45:26.186Z,22.96
2018-09-19T19:47:56.879Z,22.93
2018-09-19T19:50:27.601Z,22.90
2018-09-19T19:52:58.851Z,22.88
2018-09-19T19:55:29.517Z,22.83
2018-09-19T19:58:00.180Z,22.77
2018-09-19T20:00:30.879Z,22.69
2018-09-19T20:03:01.689Z,22.59
2018-09-19T20:05:32.504Z,22.58
2018-09-19T20:08:03.323Z,22.53
2018-09-19T20:10:34.143Z,22.44
2018-09-19T20:13:04.948Z,22.41
2018-09-19T20:15:35.718Z,22.38
2018-09-19T20:18:06.536Z,22.30
2018-09-19T20:20:37.282Z,22.30
2018-09-19T20:23:08.159Z,22.21
2018-09-19T20:25:38.971Z,22.15
2018-09-19T20:28:09.705Z,22.10
2018-09-19T20:30:40.479Z,22.07
2018-09-19T20:33:11.385Z,22.03
2018-09-19T20:35:42.136Z,21.94
2018-09-19T20:38:12.883Z,21.90
2018-09-19T20:40:43.610Z,21.80
2018-09-19T20:43:14.323Z,21.70
2018-09-19T20:45:45.083Z,21.69
2018-09-19T20:48:15.845Z,21.66
2018-09-19T20:50:46.551Z,21.60
2018-09-19T20:53:17.339Z,21.59
2018-09-19T20:55:48.095Z,21.58
2018-09-19T20:58:18.832Z,21.54
2018-09-19T21:00:49.852Z,21.63
2018-09-19T21:03:20.689Z,21.54
2018-09-19T21:05:51.430Z,21.49
2018-09-19T21:08:22.215Z,21.52
2018-09-19T21:10:53.034Z,21.48
2018-09-19T21:13:23.898Z,21.48
2018-09-19T21:15:54.632Z,21.38
2018-09-19T21:18:25.450Z,21.28
2018-09-19T21:20:56.831Z,21.19
2018-09-19T21:23:27.496Z,21.13
2018-09-19T21:25:58.207Z,21.11
2018-09-19T21:28:28.958Z,21.10
2018-09-19T21:30:59.647Z,21.08
2018-09-19T21:33:30.292Z,21.06
2018-09-19T21:36:00.980Z,20.99
2018-09-19T21:38:31.678Z,20.98
2018-09-19T21:41:02.347Z,20.98
2018-09-19T21:43:32.992Z,20.96
2018-09-19T21:46:03.657Z,20.94
2018-09-19T21:48:35.279Z,20.88
2018-09-19T21:51:06.050Z,20.95
2018-09-19T21:53:36.708Z,21.00
2018-09-19T21:56:07.366Z,20.87
2018-09-19T21:58:38.030Z,20.85
2018-09-19T22:01:09.468Z,20.75
2018-09-19T22:03:41.628Z,20.70
2018-09-19T22:06:12.397Z,20.73
2018-09-19T22:08:43.044Z,20.68
2018-09-19T22:11:13.664Z,20.72
2018-09-19T22:13:44.377Z,20.58
2018-09-19T22:16:15.088Z,20.60
2018-09-19T22:18:45.778Z,20.53
2018-09-19T22:21:16.431Z,20.48
2018-09-19T22:23:47.130Z,20.46
2018-09-19T22:26:17.815Z,20.42
2018-09-19T22:28:48.518Z,20.43
2018-09-19T22:31:19.193Z,20.37
2018-09-19T22:33:49.847Z,20.40
2018-09-19T22:36:20.565Z,20.36
2018-09-19T22:38:51.262Z,20.37
2018-09-19T22:41:22.103Z,20.46
2018-09-19T22:43:52.830Z,20.44
2018-09-19T22:46:23.650Z,20.47
2018-09-19T22:48:54.311Z,20.45
2018-09-19T22:51:25.125Z,20.40
2018-09-19T22:53:55.888Z,20.49
2018-09-19T22:56:26.677Z,20.47
2018-09-19T22:58:57.367Z,20.35
2018-09-19T23:01:28.010Z,20.37
2018-09-19T23:03:58.681Z,20.41
2018-09-19T23:06:29.317Z,20.50
2018-09-19T23:08:59.952Z,20.37
2018-09-19T23:11:30.595Z,20.40
2018-09-19T23:14:01.257Z,20.34
2018-09-19T23:16:31.955Z,20.32
2018-09-19T23:19:02.674Z,20.33
2018-09-19T23:21:33.391Z,20.19
2018-09-19T23:24:04.089Z,20.09
2018-09-19T23:26:34.834Z,20.07
2018-09-19T23:29:05.582Z,20.17
2018-09-19T23:31:36.308Z,20.13
2018-09-19T23:34:06.987Z,20.17
2018-09-19T23:36:37.693Z,20.05
2018-09-19T23:39:10.449Z,20.03
2018-09-19T23:41:41.132Z,19.95
2018-09-19T23:44:11.838Z,20.01
2018-09-19T23:46:42.525Z,19.94
2018-09-19T23:49:13.154Z,19.91
2018-09-19T23:51:43.821Z,19.90
2018-09-19T23:54:14.528Z,19.89
2018-09-19T23:56:45.161Z,19.81
2018-09-19T23:59:15.812Z,19.73
